Time,TemperatureF,DewpointF,PressureIn,WindDirection,WindDirectionDegrees,WindSpeedMPH,WindSpeedGustMPH,Humidity,HourlyPrecipIn,Conditions,Clouds,dailyrainin,SoftwareType,DateUTC
2013-01-10 00:08:00,43.7,28.0,30.16,SE,132,19.0,-999.0,55,-99.99,,,0.00,weatherlink.com 1.10,2013-01-10 05:08:00,
2013-01-10 00:23:00,39.6,31.0,30.17,SE,146,7.0,-999.0,71,-99.99,,,0.00,weatherlink.com 1.10,2013-01-10 05:23:00,
2013-01-10 00:45:00,39.5,30.0,30.18,ESE,117,4.0,-999.0,70,-99.99,,,0.00,weatherlink.com 1.10,2013-01-10 05:45:00,
2013-01-10 00:53:00,39.6,30.0,30.18,SE,128,11.0,-999.0,68,-99.99,,,0.00,weatherlink.com 1.10,2013-01-10 05:53:00,
2013-01-10 01:08:00,39.8,30.0,30.19,East,101,0.0,-999.0,67,-99.99,,,0.00,weatherlink.com 1.10,2013-01-10 06:08:00,
2013-01-10 01:23:00,40.2,29.0,30.20,SSE,155,9.0,-999.0,64,-99.99,,,0.00,weatherlink.com 1.10,2013-01-10 06:23:00,
2013-01-10 01:38:00,40.9,28.0,30.21,East,82,6.0,-999.0,61,-99.99,,,0.00,weatherlink.com 1.10,2013-01-10 06:38:00,
2013-01-10 01:53:00,41.1,28.0,30.22,SE,143,5.0,-999.0,60,-99.99,,,0.00,weatherlink.com 1.10,2013-01-10 06:53:00,
2013-01-10 02:08:00,40.9,29.0,30.23,East,98,9.0,-999.0,62,-99.99,,,0.00,weatherlink.com 1.10,2013-01-10 07:08:00,
2013-01-10 02:23:00,40.2,28.0,30.24,East,82,13.0,-999.0,63,-99.99,,,0.00,weatherlink.com 1.10,2013-01-10 07:23:00,
2013-01-10 02:38:00,39.8,28.0,30.24,ESE,102,9.0,-999.0,64,-99.99,,,0.00,weatherlink.com 1.10,2013-01-10 07:38:00,
2013-01-10 02:53:00,39.6,27.0,30.25,SE,140,8.0,-999.0,62,-99.99,,,0.00,weatherlink.com 1.10,2013-01-10 07:53:00,
2013-01-10 03:08:00,39.4,26.0,30.25,ESE,115,5.0,-999.0,60,-99.99,,,0.00,weatherlink.com 1.10,2013-01-10 08:08:00,
2013-01-10 03:23:00,39.2,27.0,30.26,SSE,154,9.0,-999.0,61,-99.99,,,0.00,weatherlink.com 1.10,2013-01-10 08:23:00,
2013-01-10 03:53:00,38.7,26.0,30.27,ENE,73,6.0,-999.0,61,-99.99,,,0.00,weatherlink.com 1.10,2013-01-10 08:53:00,
2013-01-10 04:08:00,38.6,26.0,30.28,ESE,113,15.0,-999.0,61,-99.99,,,0.00,weatherlink.com 1.10,2013-01-10 09:08:00,
2013-01-10 04:23:00,38.3,26.0,30.27,SSE,160,12.0,-999.0,61,-99.99,,,0.00,weatherlink.com 1.10,2013-01-10 09:23:00,
2013-01-10 04:38:00,38.2,26.0,30.28,SSE,163,9.0,-999.0,61,-99.99,,,0.00,weatherlink.com 1.10,2013-01-10 09:38:00,
2013-01-10 04:53:00,37.9,25.0,30.29,SSE,154,6.0,-999.0,61,-99.99,,,0.00,weatherlink.com 1.10,2013-01-10 09:53:00,
2013-01-10 05:08:00,37.6,25.0,30.31,SSE,155,6.0,-999.0,62,-99.99,,,0.00,weatherlink.com 1.10,2013-01-10 10:08:00,
2013-01-10 05:23:00,37.3,26.0,30.31,SE,132,7.0,-999.0,63,-99.99,,,0.00,weatherlink.com 1.10,2013-01-10 10:23:00,
2013-01-10 05:38:00,37.0,26.0,30.32,South,171,0.0,-999.0,64,-99.99,,,0.00,weatherlink.com 1.10,2013-01-10 10:38:00,
2013-01-10 05:53:00,36.5,26.0,30.34,South,184,3.0,-999.0,65,-99.99,,,0.00,weatherlink.com 1.10,2013-01-10 10:53:00,
2013-01-10 06:08:00,36.6,26.0,30.35,SE,140,6.0,-999.0,65,-99.99,,,0.00,weatherlink.com 1.10,2013-01-10 11:08:00,
2013-01-10 06:38:00,36.3,26.0,30.36,SSE,159,8.0,-999.0,66,-99.99,,,0.00,weatherlink.com 1.10,2013-01-10 11:38:00,
2013-01-10 06:53:00,36.0,26.0,30.38,South,184,4.0,-999.0,67,-99.99,,,0.00,weatherlink.com 1.10,2013-01-10 11:53:00,
2013-01-10 07:08:00,35.7,26.0,30.39,SSE,162,0.0,-999.0,68,-99.99,,,0.00,weatherlink.com 1.10,2013-01-10 12:08:00,
2013-01-10 07:23:00,35.3,26.0,30.41,SSE,151,0.0,-999.0,69,-99.99,,,0.00,weatherlink.com 1.10,2013-01-10 12:23:00,
2013-01-10 07:38:00,34.9,26.0,30.41,SSE,158,0.0,-999.0,70,-99.99,,,0.00,weatherlink.com 1.10,2013-01-10 12:38:00,
2013-01-10 07:53:00,34.7,26.0,30.42,East,101,0.0,-999.0,70,-99.99,,,0.00,weatherlink.com 1.10,2013-01-10 12:53:00,
2013-01-10 08:08:00,34.6,26.0,30.43,East,96,0.0,-999.0,71,-99.99,,,0.00,weatherlink.com 1.10,2013-01-10 13:08:00,
2013-01-10 08:23:00,34.8,26.0,30.44,ENE,59,2.0,-999.0,70,-99.99,,,0.00,weatherlink.com 1.10,2013-01-10 13:23:00,
2013-01-10 08:38:00,35.3,26.0,30.44,SSE,153,4.0,-999.0,69,-99.99,,,0.00,weatherlink.com 1.10,2013-01-10 13:38:00,
2013-01-10 08:54:00,36.1,26.0,30.44,ENE,74,6.0,-999.0,68,-99.99,,,0.00,weatherlink.com 1.10,2013-01-10 13:54:00,
2013-01-10 09:43:00,37.5,27.0,30.47,ESE,111,5.0,-999.0,67,-99.99,,,0.00,weatherlink.com 1.10,2013-01-10 14:43:00,
2013-01-10 09:53:00,37.8,27.0,30.47,South,173,7.0,-999.0,64,-99.99,,,0.00,weatherlink.com 1.10,2013-01-10 14:53:00,
2013-01-10 10:08:00,38.1,26.0,30.49,ESE,114,6.0,-999.0,62,-99.99,,,0.00,weatherlink.com 1.10,2013-01-10 15:08:00,
2013-01-10 10:23:00,38.6,26.0,30.49,East,93,4.0,-999.0,62,-99.99,,,0.00,weatherlink.com 1.10,2013-01-10 15:23:00,
2013-01-10 10:38:00,39.0,26.0,30.48,SSE,157,7.0,-999.0,59,-99.99,,,0.00,weatherlink.com 1.10,2013-01-10 15:38:00,
2013-01-10 10:53:00,39.2,26.0,30.47,SSE,168,4.0,-999.0,59,-99.99,,,0.00,weatherlink.com 1.10,2013-01-10 15:53:00,
2013-01-10 11:08:00,39.4,26.0,30.48,SE,132,8.0,-999.0,58,-99.99,,,0.00,weatherlink.com 1.10,2013-01-10 16:08:00,
2013-01-10 11:23:00,40.3,26.0,30.47,ESE,123,2.0,-999.0,58,-99.99,,,0.00,weatherlink.com 1.10,2013-01-10 16:23:00,
2013-01-10 11:38:00,40.8,27.0,30.48,NE,46,4.0,-999.0,58,-99.99,,,0.00,weatherlink.com 1.10,2013-01-10 16:38:00,
2013-01-10 11:53:00,40.0,26.0,30.47,SE,144,1.0,-999.0,58,-99.99,,,0.00,weatherlink.com 1.10,2013-01-10 16:53:00,
2013-01-10 12:08:00,40.6,27.0,30.46,ENE,76,0.0,-999.0,58,-99.99,,,0.00,weatherlink.com 1.10,2013-01-10 17:08:00,
2013-01-10 12:23:00,40.7,26.0,30.45,ESE,113,5.0,-999.0,57,-99.99,,,0.00,weatherlink.com 1.10,2013-01-10 17:23:00,
2013-01-10 12:38:00,40.7,26.0,30.45,ENE,73,10.0,-999.0,56,-99.99,,,0.00,weatherlink.com 1.10,2013-01-10 17:38:00,
2013-01-10 13:08:00,41.9,27.0,30.45,ESE,110,6.0,-999.0,55,-99.99,,,0.00,weatherlink.com 1.10,2013-01-10 18:08:00,
2013-01-10 13:23:00,41.7,26.0,30.45,East,88,10.0,-999.0,55,-99.99,,,0.00,weatherlink.com 1.10,2013-01-10 18:23:00,
2013-01-10 13:38:00,42.0,27.0,30.46,East,97,1.0,-999.0,55,-99.99,,,0.00,weatherlink.com 1.10,2013-01-10 18:38:00,
2013-01-10 13:53:00,42.3,27.0,30.47,East,97,4.0,-999.0,54,-99.99,,,0.00,weatherlink.com 1.10,2013-01-10 18:53:00,
2013-01-10 14:10:00,42.0,27.0,30.47,SE,139,4.0,-999.0,55,-99.99,,,0.00,weatherlink.com 1.10,2013-01-10 19:10:00,
2013-01-10 14:23:00,42.4,27.0,30.47,SE,146,7.0,-999.0,55,-99.99,,,0.00,weatherlink.com 1.10,2013-01-10 19:23:00,
2013-01-10 14:38:00,42.5,27.0,30.47,ESE,105,8.0,-999.0,55,-99.99,,,0.00,weatherlink.com 1.10,2013-01-10 19:38:00,
2013-01-10 14:53:00,42.2,27.0,30.48,ENE,72,0.0,-999.0,55,-99.99,,,0.00,weatherlink.com 1.10,2013-01-10 19:53:00,
2013-01-10 15:08:00,41.9,27.0,30.48,ESE,103,5.0,-999.0,55,-99.99,,,0.00,weatherlink.com 1.10,2013-01-10 20:08:00,
2013-01-10 15:23:00,42.0,27.0,30.48,SE,145,0.0,-999.0,55,-99.99,,,0.00,weatherlink.com 1.10,2013-01-10 20:23:00,
2013-01-10 15:53:00,40.9,27.0,30.48,East,88,1.0,-999.0,57,-99.99,,,0.00,weatherlink.com 1.10,2013-01-10 20:53:00,
2013-01-10 16:08:00,40.6,27.0,30.49,SE,144,0.0,-999.0,58,-99.99,,,0.00,weatherlink.com 1.10,2013-01-10 21:08:00,
2013-01-10 16:23:00,40.0,27.0,30.49,ESE,103,0.0,-999.0,59,-99.99,,,0.00,weatherlink.com 1.10,2013-01-10 21:23:00,
2013-01-10 16:38:00,39.4,26.0,30.49,South,169,5.0,-999.0,60,-99.99,,,0.00,weatherlink.com 1.10,2013-01-10 21:38:00,
2013-01-10 16:53:00,38.8,26.0,30.49,SE,141,0.0,-999.0,61,-99.99,,,0.00,weatherlink.com 1.10,2013-01-10 21:53:00,
2013-01-10 17:08:00,38.3,26.0,30.49,East,101,0.0,-999.0,62,-99.99,,,0.00,weatherlink.com 1.10,2013-01-10 22:08:00,
2013-01-10 17:23:00,37.8,26.0,30.50,ESE,104,4.0,-999.0,63,-99.99,,,0.00,weatherlink.com 1.10,2013-01-10 22:23:00,
2013-01-10 17:38:00,37.5,26.0,30.49,ESE,115,0.0,-999.0,63,-99.99,,,0.00,weatherlink.com 1.10,2013-01-10 22:38:00,
2013-01-10 17:53:00,37.3,26.0,30.50,SE,139,0.0,-999.0,64,-99.99,,,0.00,weatherlink.com 1.10,2013-01-10 22:53:00,
2013-01-10 18:08:00,37.0,26.0,30.50,East,89,1.0,-999.0,65,-99.99,,,0.00,weatherlink.com 1.10,2013-01-10 23:08:00,
2013-01-10 18:23:00,36.7,26.0,30.50,SE,136,0.0,-999.0,65,-99.99,,,0.00,weatherlink.com 1.10,2013-01-10 23:23:00,
2013-01-10 18:38:00,36.3,26.0,30.50,ESE,121,0.0,-999.0,66,-99.99,,,0.00,weatherlink.com 1.10,2013-01-10 23:38:00,
2013-01-10 18:53:00,35.8,26.0,30.51,SE,125,0.0,-999.0,67,-99.99,,,0.00,weatherlink.com 1.10,2013-01-10 23:53:00,
2013-01-10 19:08:00,35.3,26.0,30.51,SSE,150,1.0,-999.0,68,-99.99,,,0.00,weatherlink.com 1.10,2013-01-11 00:08:00,
2013-01-10 19:23:00,35.2,26.0,30.52,SE,141,0.0,-999.0,68,-99.99,,,0.00,weatherlink.com 1.10,2013-01-11 00:23:00,
2013-01-10 19:38:00,34.9,25.0,30.52,South,169,0.0,-999.0,68,-99.99,,,0.00,weatherlink.com 1.10,2013-01-11 00:38:00,
2013-01-10 19:53:00,34.3,25.0,30.53,South,169,0.0,-999.0,69,-99.99,,,0.00,weatherlink.com 1.10,2013-01-11 00:53:00,
2013-01-10 20:08:00,33.5,25.0,30.54,WSW,242,0.0,-999.0,71,-99.99,,,0.00,weatherlink.com 1.10,2013-01-11 01:08:00,
2013-01-10 20:38:00,31.3,24.0,30.54,WSW,242,0.0,-999.0,75,-99.99,,,0.00,weatherlink.com 1.10,2013-01-11 01:38:00,
2013-01-10 20:53:00,30.7,24.0,30.54,WSW,242,0.0,-999.0,77,-99.99,,,0.00,weatherlink.com 1.10,2013-01-11 01:53:00,
2013-01-10 21:08:00,30.2,24.0,30.54,WSW,242,0.0,-999.0,78,-99.99,,,0.00,weatherlink.com 1.10,2013-01-11 02:08:00,
2013-01-10 21:23:00,31.0,25.0,30.54,WSW,242,0.0,-999.0,78,-99.99,,,0.00,weatherlink.com 1.10,2013-01-11 02:23:00,
2013-01-10 21:38:00,31.8,25.0,30.54,WSW,242,0.0,-999.0,76,-99.99,,,0.00,weatherlink.com 1.10,2013-01-11 02:38:00,
2013-01-10 21:53:00,31.3,25.0,30.54,WSW,242,0.0,-999.0,76,-99.99,,,0.00,weatherlink.com 1.10,2013-01-11 02:53:00,
2013-01-10 22:23:00,30.7,24.0,30.55,WSW,242,0.0,-999.0,77,-99.99,,,0.00,weatherlink.com 1.10,2013-01-11 03:23:00,
2013-01-10 22:38:00,30.8,24.0,30.55,WSW,242,0.0,-999.0,76,-99.99,,,0.00,weatherlink.com 1.10,2013-01-11 03:38:00,
2013-01-10 22:53:00,30.4,24.0,30.54,WSW,242,0.0,-999.0,76,-99.99,,,0.00,weatherlink.com 1.10,2013-01-11 03:53:00,
2013-01-10 23:08:00,29.7,24.0,30.55,WSW,241,0.0,-999.0,78,-99.99,,,0.00,weatherlink.com 1.10,2013-01-11 04:08:00,
2013-01-10 23:23:00,30.2,24.0,30.55,SW,217,0.0,-999.0,78,-99.99,,,0.00,weatherlink.com 1.10,2013-01-11 04:23:00,
2013-01-10 23:38:00,30.0,24.0,30.54,SW,217,0.0,-999.0,77,-99.99,,,0.00,weatherlink.com 1.10,2013-01-11 04:38:00,
2013-01-10 23:53:00,29.3,23.0,30.53,SW,217,0.0,-999.0,78,-99.99,,,0.00,weatherlink.com 1.10,2013-01-11 04:53:00,